createdAt,value
2023-04-01T00:00:10.773Z,9.40
2023-04-01T00:02:41.784Z,9.50
2023-04-01T00:05:11.580Z,9.40
2023-04-01T00:07:40.224Z,9.40
2023-04-01T00:10:09.638Z,9.40
2023-04-01T00:12:37.913Z,9.40
2023-04-01T00:15:07.876Z,9.40
2023-04-01T00:17:35.862Z,9.50
2023-04-01T00:20:03.973Z,9.50
2023-04-01T00:22:31.412Z,9.50
2023-04-01T00:24:59.257Z,9.50
2023-04-01T00:27:27.122Z,9.50
2023-04-01T00:29:54.707Z,9.60
2023-04-01T00:32:22.202Z,9.60
2023-04-01T00:34:53.521Z,9.60
2023-04-01T00:37:22.130Z,9.60
2023-04-01T00:39:49.734Z,9.60
2023-04-01T00:42:17.263Z,9.60
2023-04-01T00:44:49.042Z,9.50
2023-04-01T00:47:16.618Z,9.50
2023-04-01T00:49:47.563Z,9.50
2023-04-01T00:52:18.535Z,9.50
2023-04-01T00:54:49.028Z,9.50
2023-04-01T00:57:24.379Z,9.50
2023-04-01T00:59:55.295Z,9.50
2023-04-01T01:02:23.703Z,9.50
2023-04-01T01:04:51.199Z,9.50
2023-04-01T01:07:47.280Z,9.50
2023-04-01T01:10:24.880Z,9.60
2023-04-01T01:13:28.678Z,9.60
2023-04-01T01:16:14.787Z,9.60
2023-04-01T01:19:22.748Z,9.70
2023-04-01T01:22:07.837Z,9.70
2023-04-01T01:25:16.441Z,9.60
2023-04-01T01:27:55.682Z,9.60
2023-04-01T01:30:39.960Z,9.60
2023-04-01T01:33:38.481Z,9.60
2023-04-01T01:36:11.327Z,9.60
2023-04-01T01:38:39.491Z,9.60
2023-04-01T01:41:10.039Z,9.50
2023-04-01T01:43:44.102Z,9.50
2023-04-01T01:46:20.076Z,9.50
2023-04-01T01:48:50.140Z,9.50
2023-04-01T01:51:19.165Z,9.50
2023-04-01T01:53:46.618Z,9.50
2023-04-01T01:56:17.646Z,9.50
2023-04-01T01:58:49.838Z,9.50
2023-04-01T02:01:31.419Z,9.50
2023-04-01T02:04:08.304Z,9.50
2023-04-01T02:06:39.371Z,9.50
2023-04-01T02:09:08.850Z,9.40
2023-04-01T02:11:58.725Z,9.40
2023-04-01T02:14:30.707Z,9.40
2023-04-01T02:17:20.624Z,9.40
2023-04-01T02:19:52.694Z,9.40
2023-04-01T02:22:36.360Z,9.50
2023-04-01T02:25:08.094Z,9.50
2023-04-01T02:27:35.789Z,9.50
2023-04-01T02:30:04.280Z,9.50
2023-04-01T02:32:33.758Z,9.60
2023-04-01T02:35:04.305Z,9.50
2023-04-01T02:37:33.930Z,9.50
2023-04-01T02:40:08.451Z,9.50
2023-04-01T02:42:36.428Z,9.50
2023-04-01T02:45:04.682Z,9.50
2023-04-01T02:47:32.349Z,9.60
2023-04-01T02:49:59.948Z,9.60
2023-04-01T02:52:28.659Z,9.50
2023-04-01T02:54:58.170Z,9.50
2023-04-01T02:57:26.664Z,9.40
2023-04-01T02:59:54.168Z,9.40
2023-04-01T03:02:21.634Z,9.40
2023-04-01T03:04:48.993Z,9.40
2023-04-01T03:07:16.300Z,9.40
2023-04-01T03:09:43.561Z,9.40
2023-04-01T03:12:11.156Z,9.40
2023-04-01T03:14:47.620Z,9.40
2023-04-01T03:17:14.855Z,9.50
2023-04-01T03:19:42.160Z,9.40
2023-04-01T03:22:13.750Z,9.30
2023-04-01T03:24:41.294Z,9.40
2023-04-01T03:27:09.032Z,9.40
2023-04-01T03:29:36.489Z,9.40
2023-04-01T03:32:04.064Z,9.30
2023-04-01T03:34:31.710Z,9.30
2023-04-01T03:36:59.399Z,9.30
2023-04-01T03:39:27.199Z,9.30
2023-04-01T03:41:56.604Z,9.20
2023-04-01T03:44:24.160Z,9.20
2023-04-01T03:46:54.379Z,9.20
2023-04-01T03:49:21.820Z,9.10
2023-04-01T03:51:49.421Z,9.20
2023-04-01T03:54:19.017Z,9.20
2023-04-01T03:56:46.986Z,9.20
2023-04-01T03:59:15.193Z,9.20
2023-04-01T04:01:43.029Z,9.20
2023-04-01T04:04:14.386Z,9.20
2023-04-01T04:06:42.556Z,9.30
2023-04-01T04:09:09.933Z,9.20
2023-04-01T04:11:37.432Z,9.10
2023-04-01T04:14:05.016Z,9.10
2023-04-01T04:16:32.635Z,9.20
2023-04-01T04:19:04.468Z,9.20
2023-04-01T04:21:32.143Z,9.20
2023-04-01T04:24:01.803Z,9.20
2023-04-01T04:26:36.720Z,9.20
2023-04-01T04:29:04.681Z,9.20
2023-04-01T04:31:32.410Z,9.20
2023-04-01T04:34:02.264Z,9.30
2023-04-01T04:36:32.267Z,9.30
2023-04-01T04:39:02.970Z,9.30
2023-04-01T04:41:31.953Z,9.30
2023-04-01T04:43:59.726Z,9.30
2023-04-01T04:46:27.574Z,9.40
2023-04-01T04:49:01.816Z,9.40
2023-04-01T04:51:29.331Z,9.40
2023-04-01T04:53:56.900Z,9.50
2023-04-01T04:56:34.764Z,9.50
2023-04-01T04:59:08.256Z,9.50
2023-04-01T05:01:48.109Z,9.50
2023-04-01T05:04:15.706Z,9.50
2023-04-01T05:06:45.839Z,9.50
2023-04-01T05:09:13.370Z,9.50
2023-04-01T05:11:41.326Z,9.50
2023-04-01T05:14:16.725Z,9.60
2023-04-01T05:16:52.374Z,9.50
2023-04-01T05:19:20.671Z,9.60
2023-04-01T05:21:48.358Z,9.50
2023-04-01T05:24:17.290Z,9.60
2023-04-01T05:26:45.872Z,9.60
2023-04-01T05:29:13.739Z,9.60
2023-04-01T05:31:42.192Z,9.60
2023-04-01T05:34:09.722Z,9.70
2023-04-01T05:36:37.650Z,9.70
2023-04-01T05:39:05.223Z,9.70
2023-04-01T05:41:32.715Z,9.70
2023-04-01T05:44:00.421Z,9.80
2023-04-01T05:46:43.219Z,9.80
2023-04-01T05:49:21.077Z,9.90
2023-04-01T05:51:50.391Z,9.90
2023-04-01T05:54:18.128Z,10.00
2023-04-01T05:56:48.287Z,10.00
2023-04-01T05:59:16.859Z,10.00
2023-04-01T06:01:44.542Z,10.10
2023-04-01T06:04:18.296Z,10.00
2023-04-01T06:06:47.202Z,10.10
2023-04-01T06:09:21.063Z,10.10
2023-04-01T06:12:29.910Z,10.10
2023-04-01T06:15:38.717Z,10.10
2023-04-01T06:18:55.588Z,10.20
2023-04-01T06:21:47.730Z,10.20
2023-04-01T06:24:44.524Z,10.30
2023-04-01T06:28:13.197Z,10.40
2023-04-01T06:31:19.570Z,10.50
2023-04-01T06:34:07.823Z,10.60
2023-04-01T06:37:12.226Z,10.70
2023-04-01T06:40:09.436Z,10.80
2023-04-01T06:43:03.006Z,10.90
2023-04-01T06:46:29.776Z,11.00
2023-04-01T06:50:08.969Z,11.10
2023-04-01T07:02:32.843Z,11.50
2023-04-01T07:05:02.006Z,11.60
2023-04-01T07:07:39.012Z,11.70
2023-04-01T07:10:23.459Z,11.80
2023-04-01T07:13:47.279Z,11.80
2023-04-01T07:16:46.258Z,11.70
2023-04-01T07:19:41.380Z,11.80
2023-04-01T07:22:32.230Z,11.80
2023-04-01T07:25:19.980Z,11.80
2023-04-01T07:28:02.946Z,11.80
2023-04-01T07:30:41.196Z,11.80
2023-04-01T07:33:22.766Z,11.80
2023-04-01T07:36:14.360Z,11.90
2023-04-01T07:39:11.486Z,12.00
2023-04-01T07:42:17.506Z,12.00
2023-04-01T07:45:19.820Z,12.00
2023-04-01T07:48:21.031Z,12.10
2023-04-01T07:51:28.828Z,12.10
2023-04-01T07:54:41.182Z,12.10
2023-04-01T07:57:29.186Z,12.20
2023-04-01T08:00:25.448Z,12.30
2023-04-01T08:03:50.372Z,12.40
2023-04-01T08:06:32.357Z,12.50
2023-04-01T08:09:36.919Z,12.50
2023-04-01T08:13:07.474Z,12.50
2023-04-01T08:16:21.995Z,12.50
2023-04-01T08:19:57.819Z,12.60
2023-04-01T08:22:34.532Z,12.70
2023-04-01T08:25:08.824Z,12.80
2023-04-01T08:27:51.572Z,13.30
2023-04-01T08:30:29.208Z,13.70
2023-04-01T08:33:21.045Z,13.70
2023-04-01T08:36:08.074Z,13.70
2023-04-01T08:39:14.607Z,13.70
2023-04-01T08:42:29.872Z,13.60
2023-04-01T08:45:44.153Z,13.60
2023-04-01T08:49:16.007Z,13.80
2023-04-01T08:52:02.195Z,14.00
2023-04-01T08:55:18.410Z,14.00
2023-04-01T08:58:47.749Z,14.10
2023-04-01T09:02:01.894Z,14.20
2023-04-01T09:05:46.723Z,14.10
2023-04-01T09:15:15.935Z,14.30
2023-04-01T09:18:17.144Z,14.20
2023-04-01T09:21:17.929Z,14.10
2023-04-01T09:24:10.051Z,14.00
2023-04-01T09:27:26.441Z,14.00
2023-04-01T09:30:50.873Z,13.80
2023-04-01T09:33:57.031Z,13.80
2023-04-01T09:36:52.540Z,13.90
2023-04-01T09:40:17.128Z,13.70
2023-04-01T09:43:36.710Z,13.60
2023-04-01T09:46:41.169Z,13.60
2023-04-01T09:49:33.803Z,13.80
2023-04-01T09:52:39.639Z,14.00
2023-04-01T09:55:57.805Z,14.10
2023-04-01T09:58:55.875Z,13.90
2023-04-01T10:02:15.563Z,13.80
2023-04-01T10:05:33.041Z,13.90
2023-04-01T10:43:21.385Z,13.80
2023-04-01T10:46:21.562Z,13.50
2023-04-01T10:49:28.056Z,13.40
2023-04-01T11:00:33.505Z,12.40
2023-04-01T11:04:06.686Z,12.20
2023-04-01T11:07:34.762Z,12.40
2023-04-01T11:10:45.353Z,12.70
2023-04-01T11:13:52.242Z,13.00
2023-04-01T11:39:24.902Z,14.40
2023-04-01T11:42:39.379Z,14.50
2023-04-01T11:45:44.240Z,14.50
2023-04-01T11:48:44.278Z,14.60
2023-04-01T11:51:29.833Z,14.40
2023-04-01T11:54:20.440Z,14.50
2023-04-01T11:57:29.140Z,14.50
2023-04-01T12:00:32.700Z,14.70
2023-04-01T12:03:30.350Z,14.60
2023-04-01T12:06:37.055Z,14.70
2023-04-01T12:09:59.968Z,14.40
2023-04-01T12:12:58.147Z,14.20
2023-04-01T12:16:08.009Z,14.00
2023-04-01T12:18:43.866Z,13.90
2023-04-01T12:21:27.800Z,13.90
2023-04-01T12:31:18.230Z,14.30
2023-04-01T12:37:43.503Z,14.90
2023-04-01T12:40:39.574Z,14.90
2023-04-01T12:43:28.646Z,15.20
2023-04-01T12:46:19.538Z,14.90
2023-04-01T12:49:23.926Z,14.80
2023-04-01T12:52:23.038Z,14.70
2023-04-01T12:55:20.601Z,14.90
2023-04-01T12:58:14.275Z,15.10
2023-04-01T13:01:16.254Z,15.60
2023-04-01T13:04:29.643Z,15.70
2023-04-01T13:07:32.657Z,16.00
2023-04-01T13:10:26.403Z,15.50
2023-04-01T13:13:24.016Z,14.90
2023-04-01T13:16:06.672Z,14.60
2023-04-01T13:18:54.397Z,14.40
2023-04-01T13:22:19.234Z,14.20
2023-04-01T13:25:22.515Z,14.10
2023-04-01T13:27:57.795Z,14.00
2023-04-01T13:30:36.339Z,13.90
2023-04-01T13:36:55.180Z,13.90
2023-04-01T13:42:58.874Z,14.20
2023-04-01T13:45:47.910Z,14.30
2023-04-01T13:49:13.457Z,14.30
2023-04-01T13:52:27.859Z,14.00
2023-04-01T13:55:22.084Z,13.70
2023-04-01T13:58:26.823Z,13.60
2023-04-01T14:01:07.907Z,13.40
2023-04-01T14:04:14.699Z,13.30
2023-04-01T14:07:17.505Z,13.40
2023-04-01T14:10:10.353Z,13.40
2023-04-01T14:12:58.296Z,13.70
2023-04-01T14:15:52.214Z,13.90
2023-04-01T14:19:20.793Z,13.90
2023-04-01T14:22:01.094Z,13.90
2023-04-01T14:25:05.728Z,14.00
2023-04-01T14:28:00.486Z,14.00
2023-04-01T14:31:16.288Z,14.00
2023-04-01T14:34:21.259Z,14.10
2023-04-01T14:37:24.131Z,14.10
2023-04-01T14:40:27.572Z,14.10
2023-04-01T14:43:25.571Z,14.00
2023-04-01T14:52:31.479Z,14.40
2023-04-01T14:55:00.620Z,14.60
2023-04-01T14:57:36.149Z,14.60
2023-04-01T15:00:19.646Z,14.50
2023-04-01T15:12:49.103Z,14.10
2023-04-01T15:15:55.657Z,13.90
2023-04-01T15:18:54.522Z,13.70
2023-04-01T15:21:57.316Z,13.70
2023-04-01T15:25:22.729Z,13.80
2023-04-01T15:28:37.528Z,13.90
2023-04-01T15:31:54.017Z,14.00
2023-04-01T15:34:53.847Z,13.90
2023-04-01T15:37:56.027Z,13.80
2023-04-01T15:41:00.732Z,13.60
2023-04-01T15:43:53.337Z,13.50
2023-04-01T15:46:49.870Z,13.40
2023-04-01T15:49:58.414Z,13.40
2023-04-01T15:53:06.904Z,13.30
2023-04-01T15:56:42.428Z,13.20
2023-04-01T15:59:56.090Z,13.00
2023-04-01T16:03:05.383Z,12.90
2023-04-01T16:05:52.200Z,12.80
2023-04-01T16:08:48.233Z,12.70
2023-04-01T16:11:44.987Z,12.80
2023-04-01T16:14:58.677Z,12.80
2023-04-01T16:18:05.324Z,12.80
2023-04-01T16:21:13.040Z,12.80
2023-04-01T16:26:40.549Z,12.70
2023-04-01T16:29:39.941Z,12.70
2023-04-01T16:32:50.879Z,12.70
2023-04-01T16:35:59.009Z,12.70
2023-04-01T16:38:47.125Z,12.70
2023-04-01T16:41:34.135Z,12.70
2023-04-01T16:44:24.165Z,12.50
2023-04-01T16:47:10.644Z,12.50
2023-04-01T16:49:40.531Z,12.40
2023-04-01T16:52:30.726Z,12.30
2023-04-01T16:55:48.696Z,12.30
2023-04-01T16:58:42.395Z,12.30
2023-04-01T17:01:42.114Z,12.10
2023-04-01T17:04:22.792Z,12.00
2023-04-01T17:06:59.819Z,11.90
2023-04-01T17:10:19.445Z,11.90
2023-04-01T17:13:37.857Z,11.80
2023-04-01T17:16:40.405Z,11.60
2023-04-01T17:51:57.150Z,10.70
2023-04-01T17:54:40.896Z,10.70
2023-04-01T17:57:43.217Z,10.60
2023-04-01T18:00:50.593Z,10.40
2023-04-01T18:04:02.095Z,10.40
2023-04-01T18:07:04.518Z,10.30
2023-04-01T18:10:26.464Z,10.30
2023-04-01T18:17:19.061Z,10.20
2023-04-01T18:20:16.274Z,10.20
2023-04-01T18:23:16.408Z,10.20
2023-04-01T18:25:49.354Z,10.10
2023-04-01T18:28:28.858Z,10.10
2023-04-01T18:31:11.040Z,10.00
2023-04-01T18:33:59.489Z,10.00
2023-04-01T18:36:52.235Z,9.90
2023-04-01T18:39:41.654Z,9.90
2023-04-01T18:42:35.964Z,9.90
2023-04-01T18:45:42.719Z,9.80
2023-04-01T18:48:33.840Z,9.70
2023-04-01T18:51:14.916Z,9.80
2023-04-01T18:53:53.981Z,9.70
2023-04-01T18:56:29.971Z,9.70
2023-04-01T18:59:30.653Z,9.70
2023-04-01T19:02:22.011Z,9.60
2023-04-01T19:05:20.040Z,9.70
2023-04-01T19:07:54.061Z,9.70
2023-04-01T19:10:49.710Z,9.70
2023-04-01T19:13:39.655Z,9.90
2023-04-01T19:16:49.752Z,10.00
2023-04-01T19:20:00.670Z,10.10
2023-04-01T19:23:36.592Z,10.10
2023-04-01T19:26:18.001Z,10.10
2023-04-01T19:29:19.070Z,10.10
2023-04-01T19:32:22.656Z,10.10
2023-04-01T19:35:31.619Z,10.10
2023-04-01T19:38:12.113Z,10.00
2023-04-01T19:41:01.673Z,10.00
2023-04-01T19:44:03.433Z,10.00
2023-04-01T19:46:51.381Z,10.00
2023-04-01T19:49:44.839Z,9.90
2023-04-01T19:52:46.624Z,9.90
2023-04-01T19:55:49.685Z,10.00
2023-04-01T19:58:34.818Z,9.90
2023-04-01T20:01:05.916Z,9.90
2023-04-01T20:03:52.304Z,10.00
2023-04-01T20:06:46.398Z,9.90
2023-04-01T20:10:00.374Z,9.90
2023-04-01T20:12:53.525Z,9.90
2023-04-01T20:15:28.596Z,9.90
2023-04-01T20:17:59.751Z,9.80
2023-04-01T20:20:30.364Z,9.80
2023-04-01T20:23:32.162Z,9.90
2023-04-01T20:26:12.254Z,9.80
2023-04-01T20:28:47.554Z,9.80
2023-04-01T20:31:48.628Z,9.70
2023-04-01T20:34:43.660Z,9.70
2023-04-01T20:37:52.213Z,9.70
2023-04-01T20:40:45.522Z,9.70
2023-04-01T20:43:31.925Z,9.70
2023-04-01T20:46:34.605Z,9.70
2023-04-01T20:49:37.873Z,9.80
2023-04-01T20:52:47.585Z,9.70
2023-04-01T21:34:47.770Z,9.20
2023-04-01T21:37:42.353Z,9.10
2023-04-01T21:41:08.578Z,9.10
2023-04-01T21:44:19.865Z,9.00
2023-04-01T21:47:44.390Z,9.00
2023-04-01T21:50:45.209Z,9.00
2023-04-01T21:53:52.764Z,9.00
2023-04-01T21:56:36.167Z,8.90
2023-04-01T21:59:50.792Z,8.90
2023-04-01T22:03:16.391Z,8.80
2023-04-01T22:06:07.810Z,8.80
2023-04-01T22:09:00.921Z,8.80
2023-04-01T22:11:45.930Z,8.80
2023-04-01T22:14:59.118Z,8.80
2023-04-01T22:17:59.004Z,8.70
2023-04-01T22:20:52.829Z,8.70
2023-04-01T22:23:52.621Z,8.70
2023-04-01T22:26:41.975Z,8.60
2023-04-01T22:29:32.464Z,8.60
2023-04-01T22:32:25.776Z,8.60
2023-04-01T22:35:10.369Z,8.50
2023-04-01T22:38:22.396Z,8.50
2023-04-01T22:41:17.345Z,8.50
2023-04-01T22:43:46.323Z,8.50
2023-04-01T22:47:00.568Z,8.50
2023-04-01T22:49:36.246Z,8.40
2023-04-01T22:52:34.833Z,8.40
2023-04-01T22:55:13.942Z,8.40
2023-04-01T22:58:08.708Z,8.40
2023-04-01T23:00:46.465Z,8.40
2023-04-01T23:03:42.098Z,8.40
2023-04-01T23:06:26.288Z,8.30
2023-04-01T23:09:14.020Z,8.20
2023-04-01T23:12:10.926Z,8.20
2023-04-01T23:14:47.400Z,8.20
2023-04-01T23:18:00.453Z,8.10
2023-04-01T23:21:10.006Z,8.10
2023-04-01T23:24:02.009Z,8.00
2023-04-01T23:26:51.384Z,8.00
2023-04-01T23:29:20.420Z,8.00
2023-04-01T23:31:58.023Z,8.00
2023-04-01T23:34:36.765Z,8.00
2023-04-01T23:37:09.412Z,8.00
2023-04-01T23:39:58.810Z,8.00
2023-04-01T23:42:30.139Z,7.90
2023-04-01T23:45:03.832Z,7.90
2023-04-01T23:47:34.763Z,7.90
2023-04-01T23:50:11.914Z,7.90
2023-04-01T23:52:47.213Z,7.90
2023-04-01T23:55:19.197Z,7.90
2023-04-01T23:58:22.315Z,7.90
